sensor_id;sensor_type;location;lat;lon;timestamp;temperature;humidity
25328;DHT22;13279;51.300;12.394;2022-08-30T00:01:25;15.60;99.90
25328;DHT22;13279;51.300;12.394;2022-08-30T00:03:52;15.60;99.90
25328;DHT22;13279;51.300;12.394;2022-08-30T00:06:22;15.60;99.90
25328;DHT22;13279;51.300;12.394;2022-08-30T00:08:51;15.60;99.90
25328;DHT22;13279;51.300;12.394;2022-08-30T00:11:21;15.60;99.90
25328;DHT22;13279;51.300;12.394;2022-08-30T00:13:50;15.70;99.90
25328;DHT22;13279;51.300;12.394;2022-08-30T00:16:19;15.70;99.90
25328;DHT22;13279;51.300;12.394;2022-08-30T00:18:49;15.80;99.90
25328;DHT22;13279;51.300;12.394;2022-08-30T00:21:17;15.80;99.90
25328;DHT22;13279;51.300;12.394;2022-08-30T00:23:45;15.80;99.90
25328;DHT22;13279;51.300;12.394;2022-08-30T00:26:12;15.80;99.90
25328;DHT22;13279;51.300;12.394;2022-08-30T00:28:39;15.80;99.90
25328;DHT22;13279;51.300;12.394;2022-08-30T00:31:07;15.70;99.90
25328;DHT22;13279;51.300;12.394;2022-08-30T00:33:35;15.60;99.90
25328;DHT22;13279;51.300;12.394;2022-08-30T00:36:05;15.50;99.90
25328;DHT22;13279;51.300;12.394;2022-08-30T00:38:32;15.50;99.90
25328;DHT22;13279;51.300;12.394;2022-08-30T00:41:00;15.40;99.90
25328;DHT22;13279;51.300;12.394;2022-08-30T00:43:30;15.30;99.90
25328;DHT22;13279;51.300;12.394;2022-08-30T00:45:59;15.30;99.90
25328;DHT22;13279;51.300;12.394;2022-08-30T00:48:29;15.20;99.90
25328;DHT22;13279;51.300;12.394;2022-08-30T00:51:01;15.20;99.90
25328;DHT22;13279;51.300;12.394;2022-08-30T00:53:34;15.20;99.90
25328;DHT22;13279;51.300;12.394;2022-08-30T00:56:03;15.10;99.90
25328;DHT22;13279;51.300;12.394;2022-08-30T00:58:34;15.10;99.90
25328;DHT22;13279;51.300;12.394;2022-08-30T01:01:04;15.10;99.90
25328;DHT22;13279;51.300;12.394;2022-08-30T01:03:32;15.10;99.90
25328;DHT22;13279;51.300;12.394;2022-08-30T01:06:00;15.10;99.90
25328;DHT22;13279;51.300;12.394;2022-08-30T01:08:31;15.20;99.90
25328;DHT22;13279;51.300;12.394;2022-08-30T01:10:58;15.20;99.90
25328;DHT22;13279;51.300;12.394;2022-08-30T01:13:28;15.20;99.90
25328;DHT22;13279;51.300;12.394;2022-08-30T01:15:56;15.30;99.90
25328;DHT22;13279;51.300;12.394;2022-08-30T01:18:25;15.50;99.90
25328;DHT22;13279;51.300;12.394;2022-08-30T01:20:58;15.60;99.90
25328;DHT22;13279;51.300;12.394;2022-08-30T01:23:31;15.60;99.90
25328;DHT22;13279;51.300;12.394;2022-08-30T01:26:01;15.70;99.90
25328;DHT22;13279;51.300;12.394;2022-08-30T01:28:30;15.70;99.90
25328;DHT22;13279;51.300;12.394;2022-08-30T01:30:58;15.70;99.90
25328;DHT22;13279;51.300;12.394;2022-08-30T01:33:26;15.70;99.90
25328;DHT22;13279;51.300;12.394;2022-08-30T01:35:57;15.70;99.90
25328;DHT22;13279;51.300;12.394;2022-08-30T01:38:28;15.70;99.90
25328;DHT22;13279;51.300;12.394;2022-08-30T01:41:04;15.70;99.90
25328;DHT22;13279;51.300;12.394;2022-08-30T01:43:33;15.70;99.90
25328;DHT22;13279;51.300;12.394;2022-08-30T01:46:00;15.70;99.90
25328;DHT22;13279;51.300;12.394;2022-08-30T01:48:28;15.70;99.90
25328;DHT22;13279;51.300;12.394;2022-08-30T01:50:55;15.70;99.90
25328;DHT22;13279;51.300;12.394;2022-08-30T01:53:23;15.70;99.90
25328;DHT22;13279;51.300;12.394;2022-08-30T01:55:51;15.70;99.90
25328;DHT22;13279;51.300;12.394;2022-08-30T01:58:20;15.60;99.90
25328;DHT22;13279;51.300;12.394;2022-08-30T02:00:48;15.60;99.90
25328;DHT22;13279;51.300;12.394;2022-08-30T02:03:15;15.60;99.90
25328;DHT22;13279;51.300;12.394;2022-08-30T02:05:44;15.50;99.90
25328;DHT22;13279;51.300;12.394;2022-08-30T02:08:11;15.50;99.90
25328;DHT22;13279;51.300;12.394;2022-08-30T02:10:39;15.40;99.90
25328;DHT22;13279;51.300;12.394;2022-08-30T02:13:07;15.40;99.90
25328;DHT22;13279;51.300;12.394;2022-08-30T02:15:35;15.30;99.90
25328;DHT22;13279;51.300;12.394;2022-08-30T02:18:03;15.30;99.90
25328;DHT22;13279;51.300;12.394;2022-08-30T02:20:30;15.20;99.90
25328;DHT22;13279;51.300;12.394;2022-08-30T02:22:58;15.10;99.90
25328;DHT22;13279;51.300;12.394;2022-08-30T02:25:26;15.00;99.90
25328;DHT22;13279;51.300;12.394;2022-08-30T02:27:53;14.90;99.90
25328;DHT22;13279;51.300;12.394;2022-08-30T02:30:21;14.80;99.90
25328;DHT22;13279;51.300;12.394;2022-08-30T02:32:49;14.80;99.90
25328;DHT22;13279;51.300;12.394;2022-08-30T02:35:17;14.70;99.90
25328;DHT22;13279;51.300;12.394;2022-08-30T02:37:44;14.80;99.90
25328;DHT22;13279;51.300;12.394;2022-08-30T02:40:12;14.80;99.90
25328;DHT22;13279;51.300;12.394;2022-08-30T02:42:40;14.70;99.90
25328;DHT22;13279;51.300;12.394;2022-08-30T02:45:08;14.70;99.90
25328;DHT22;13279;51.300;12.394;2022-08-30T02:47:36;14.80;99.90
25328;DHT22;13279;51.300;12.394;2022-08-30T02:50:06;14.70;99.90
25328;DHT22;13279;51.300;12.394;2022-08-30T02:52:34;14.70;99.90
25328;DHT22;13279;51.300;12.394;2022-08-30T02:55:01;14.70;99.90
25328;DHT22;13279;51.300;12.394;2022-08-30T02:57:29;14.70;99.90
25328;DHT22;13279;51.300;12.394;2022-08-30T02:59:57;14.60;99.90
25328;DHT22;13279;51.300;12.394;2022-08-30T03:02:24;14.60;99.90
25328;DHT22;13279;51.300;12.394;2022-08-30T03:04:52;14.60;99.90
25328;DHT22;13279;51.300;12.394;2022-08-30T03:07:21;14.50;99.90
25328;DHT22;13279;51.300;12.394;2022-08-30T03:09:48;14.40;99.90
25328;DHT22;13279;51.300;12.394;2022-08-30T03:12:16;14.40;99.90
25328;DHT22;13279;51.300;12.394;2022-08-30T03:14:43;14.40;99.90
25328;DHT22;13279;51.300;12.394;2022-08-30T03:17:11;14.40;99.90
25328;DHT22;13279;51.300;12.394;2022-08-30T03:19:38;14.40;99.90
25328;DHT22;13279;51.300;12.394;2022-08-30T03:22:06;14.40;99.90
25328;DHT22;13279;51.300;12.394;2022-08-30T03:24:35;14.30;99.90
25328;DHT22;13279;51.300;12.394;2022-08-30T03:27:02;14.30;99.90
25328;DHT22;13279;51.300;12.394;2022-08-30T03:29:30;14.30;99.90
25328;DHT22;13279;51.300;12.394;2022-08-30T03:31:58;14.20;99.90
25328;DHT22;13279;51.300;12.394;2022-08-30T03:34:26;14.20;99.90
25328;DHT22;13279;51.300;12.394;2022-08-30T03:36:54;14.20;99.90
25328;DHT22;13279;51.300;12.394;2022-08-30T03:39:23;14.10;99.90
25328;DHT22;13279;51.300;12.394;2022-08-30T03:41:52;14.10;99.90
25328;DHT22;13279;51.300;12.394;2022-08-30T03:44:20;14.10;99.90
25328;DHT22;13279;51.300;12.394;2022-08-30T03:46:48;14.10;99.90
25328;DHT22;13279;51.300;12.394;2022-08-30T03:49:16;14.10;99.90
25328;DHT22;13279;51.300;12.394;2022-08-30T03:51:44;14.00;99.90
25328;DHT22;13279;51.300;12.394;2022-08-30T03:54:12;14.00;99.90
25328;DHT22;13279;51.300;12.394;2022-08-30T03:56:40;14.00;99.90
25328;DHT22;13279;51.300;12.394;2022-08-30T03:59:09;14.10;99.90
25328;DHT22;13279;51.300;12.394;2022-08-30T04:01:36;14.10;99.90
25328;DHT22;13279;51.300;12.394;2022-08-30T04:04:04;14.10;99.90
25328;DHT22;13279;51.300;12.394;2022-08-30T04:06:31;14.10;99.90
25328;DHT22;13279;51.300;12.394;2022-08-30T04:08:59;14.10;99.90
25328;DHT22;13279;51.300;12.394;2022-08-30T04:11:26;14.10;99.90
25328;DHT22;13279;51.300;12.394;2022-08-30T04:13:54;14.10;99.90
25328;DHT22;13279;51.300;12.394;2022-08-30T04:16:24;14.00;99.90
25328;DHT22;13279;51.300;12.394;2022-08-30T04:18:51;14.00;99.90
25328;DHT22;13279;51.300;12.394;2022-08-30T04:21:19;14.00;99.90
25328;DHT22;13279;51.300;12.394;2022-08-30T04:23:46;14.00;99.90
25328;DHT22;13279;51.300;12.394;2022-08-30T04:26:14;14.00;99.90
25328;DHT22;13279;51.300;12.394;2022-08-30T04:28:41;14.00;99.90
25328;DHT22;13279;51.300;12.394;2022-08-30T04:31:10;14.00;99.90
25328;DHT22;13279;51.300;12.394;2022-08-30T04:33:39;14.00;99.90
25328;DHT22;13279;51.300;12.394;2022-08-30T04:36:09;14.00;99.90
25328;DHT22;13279;51.300;12.394;2022-08-30T04:38:39;14.00;99.90
25328;DHT22;13279;51.300;12.394;2022-08-30T04:41:11;14.00;99.90
25328;DHT22;13279;51.300;12.394;2022-08-30T04:43:41;14.00;99.90
25328;DHT22;13279;51.300;12.394;2022-08-30T04:46:09;13.90;99.90
25328;DHT22;13279;51.300;12.394;2022-08-30T04:48:39;13.80;99.90
25328;DHT22;13279;51.300;12.394;2022-08-30T04:51:09;13.80;99.90
25328;DHT22;13279;51.300;12.394;2022-08-30T04:53:37;13.80;99.90
25328;DHT22;13279;51.300;12.394;2022-08-30T04:56:07;13.80;99.90
25328;DHT22;13279;51.300;12.394;2022-08-30T04:58:34;13.80;99.90
25328;DHT22;13279;51.300;12.394;2022-08-30T05:01:02;13.80;99.90
25328;DHT22;13279;51.300;12.394;2022-08-30T05:03:30;13.80;99.90
25328;DHT22;13279;51.300;12.394;2022-08-30T05:05:59;13.80;99.90
25328;DHT22;13279;51.300;12.394;2022-08-30T05:08:26;13.90;99.90
25328;DHT22;13279;51.300;12.394;2022-08-30T05:10:54;13.90;99.90
25328;DHT22;13279;51.300;12.394;2022-08-30T05:13:21;13.90;99.90
25328;DHT22;13279;51.300;12.394;2022-08-30T05:15:49;13.90;99.90
25328;DHT22;13279;51.300;12.394;2022-08-30T05:18:17;14.00;99.90
25328;DHT22;13279;51.300;12.394;2022-08-30T05:20:45;14.00;99.90
25328;DHT22;13279;51.300;12.394;2022-08-30T05:23:14;14.10;99.90
25328;DHT22;13279;51.300;12.394;2022-08-30T05:25:41;14.10;99.90
25328;DHT22;13279;51.300;12.394;2022-08-30T05:28:09;14.20;99.90
25328;DHT22;13279;51.300;12.394;2022-08-30T05:30:37;14.20;99.90
25328;DHT22;13279;51.300;12.394;2022-08-30T05:33:04;14.30;99.90
25328;DHT22;13279;51.300;12.394;2022-08-30T05:35:32;14.30;99.90
25328;DHT22;13279;51.300;12.394;2022-08-30T05:37:59;14.30;99.90
25328;DHT22;13279;51.300;12.394;2022-08-30T05:40:28;14.30;99.90
25328;DHT22;13279;51.300;12.394;2022-08-30T05:42:55;14.30;99.90
25328;DHT22;13279;51.300;12.394;2022-08-30T05:45:23;14.40;99.90
25328;DHT22;13279;51.300;12.394;2022-08-30T05:47:50;14.40;99.90
25328;DHT22;13279;51.300;12.394;2022-08-30T05:50:18;14.50;99.90
25328;DHT22;13279;51.300;12.394;2022-08-30T05:52:45;14.50;99.90
25328;DHT22;13279;51.300;12.394;2022-08-30T05:55:13;14.60;99.90
25328;DHT22;13279;51.300;12.394;2022-08-30T05:57:42;14.70;99.90
25328;DHT22;13279;51.300;12.394;2022-08-30T06:00:12;14.80;99.90
25328;DHT22;13279;51.300;12.394;2022-08-30T06:02:40;14.90;99.90
25328;DHT22;13279;51.300;12.394;2022-08-30T06:05:09;14.90;99.90
25328;DHT22;13279;51.300;12.394;2022-08-30T06:07:37;15.00;99.90
25328;DHT22;13279;51.300;12.394;2022-08-30T06:10:05;15.00;99.90
25328;DHT22;13279;51.300;12.394;2022-08-30T06:12:32;15.10;99.90
25328;DHT22;13279;51.300;12.394;2022-08-30T06:15:01;15.10;99.90
25328;DHT22;13279;51.300;12.394;2022-08-30T06:17:29;15.20;99.90
25328;DHT22;13279;51.300;12.394;2022-08-30T06:19:57;15.30;99.90
25328;DHT22;13279;51.300;12.394;2022-08-30T06:22:24;15.50;99.90
25328;DHT22;13279;51.300;12.394;2022-08-30T06:24:52;15.70;99.90
25328;DHT22;13279;51.300;12.394;2022-08-30T06:27:19;15.90;99.90
25328;DHT22;13279;51.300;12.394;2022-08-30T06:29:50;16.20;99.90
25328;DHT22;13279;51.300;12.394;2022-08-30T06:32:19;16.50;99.90
25328;DHT22;13279;51.300;12.394;2022-08-30T06:34:46;16.80;99.90
25328;DHT22;13279;51.300;12.394;2022-08-30T06:37:14;16.90;99.90
25328;DHT22;13279;51.300;12.394;2022-08-30T06:39:41;17.10;99.90
25328;DHT22;13279;51.300;12.394;2022-08-30T06:42:09;17.20;99.90
25328;DHT22;13279;51.300;12.394;2022-08-30T06:44:36;17.40;99.90
25328;DHT22;13279;51.300;12.394;2022-08-30T06:47:04;17.50;99.90
25328;DHT22;13279;51.300;12.394;2022-08-30T06:49:34;17.70;99.90
25328;DHT22;13279;51.300;12.394;2022-08-30T06:52:01;17.90;99.90
25328;DHT22;13279;51.300;12.394;2022-08-30T06:54:29;18.00;99.90
25328;DHT22;13279;51.300;12.394;2022-08-30T06:56:56;18.20;98.80
25328;DHT22;13279;51.300;12.394;2022-08-30T06:59:24;18.40;57.80
25328;DHT22;13279;51.300;12.394;2022-08-30T07:01:52;18.60;1.00
25328;DHT22;13279;51.300;12.394;2022-08-30T07:04:20;18.60;35.00
25328;DHT22;13279;51.300;12.394;2022-08-30T07:06:48;18.60;42.90
25328;DHT22;13279;51.300;12.394;2022-08-30T07:09:16;18.70;5.80
25328;DHT22;13279;51.300;12.394;2022-08-30T07:11:44;18.80;1.00
25328;DHT22;13279;51.300;12.394;2022-08-30T07:14:11;18.80;1.00
25328;DHT22;13279;51.300;12.394;2022-08-30T07:16:39;19.00;1.00
25328;DHT22;13279;51.300;12.394;2022-08-30T07:19:06;18.80;1.00
25328;DHT22;13279;51.300;12.394;2022-08-30T07:21:34;19.00;1.00
25328;DHT22;13279;51.300;12.394;2022-08-30T07:24:05;19.00;1.00
25328;DHT22;13279;51.300;12.394;2022-08-30T07:26:34;19.30;1.00
25328;DHT22;13279;51.300;12.394;2022-08-30T07:29:02;19.40;1.00
25328;DHT22;13279;51.300;12.394;2022-08-30T07:31:30;19.60;1.00
25328;DHT22;13279;51.300;12.394;2022-08-30T07:33:58;19.90;1.00
25328;DHT22;13279;51.300;12.394;2022-08-30T07:36:25;19.80;1.00
25328;DHT22;13279;51.300;12.394;2022-08-30T07:38:53;19.80;1.00
25328;DHT22;13279;51.300;12.394;2022-08-30T07:41:24;19.90;1.00
25328;DHT22;13279;51.300;12.394;2022-08-30T07:43:52;20.00;1.00
25328;DHT22;13279;51.300;12.394;2022-08-30T07:46:20;20.00;1.00
25328;DHT22;13279;51.300;12.394;2022-08-30T07:48:48;20.00;1.00
25328;DHT22;13279;51.300;12.394;2022-08-30T07:51:17;20.10;1.00
25328;DHT22;13279;51.300;12.394;2022-08-30T07:53:45;20.10;1.00
25328;DHT22;13279;51.300;12.394;2022-08-30T07:56:12;20.30;1.00
25328;DHT22;13279;51.300;12.394;2022-08-30T07:58:41;20.50;1.00
25328;DHT22;13279;51.300;12.394;2022-08-30T08:01:10;20.50;1.00
25328;DHT22;13279;51.300;12.394;2022-08-30T08:03:39;20.50;1.00
25328;DHT22;13279;51.300;12.394;2022-08-30T08:06:09;20.80;1.00
25328;DHT22;13279;51.300;12.394;2022-08-30T08:08:38;20.90;1.00
25328;DHT22;13279;51.300;12.394;2022-08-30T08:11:07;21.00;1.00
25328;DHT22;13279;51.300;12.394;2022-08-30T08:13:35;21.30;1.00
25328;DHT22;13279;51.300;12.394;2022-08-30T08:16:04;21.40;1.00
25328;DHT22;13279;51.300;12.394;2022-08-30T08:18:31;21.60;1.00
25328;DHT22;13279;51.300;12.394;2022-08-30T08:21:00;21.70;1.00
25328;DHT22;13279;51.300;12.394;2022-08-30T08:23:27;21.80;99.90
25328;DHT22;13279;51.300;12.394;2022-08-30T08:25:56;21.80;99.90
25328;DHT22;13279;51.300;12.394;2022-08-30T08:28:23;22.10;99.90
25328;DHT22;13279;51.300;12.394;2022-08-30T08:30:51;21.90;99.90
25328;DHT22;13279;51.300;12.394;2022-08-30T08:33:22;21.90;99.90
25328;DHT22;13279;51.300;12.394;2022-08-30T08:35:50;21.60;99.90
25328;DHT22;13279;51.300;12.394;2022-08-30T08:38:17;21.70;99.90
25328;DHT22;13279;51.300;12.394;2022-08-30T08:40:54;22.10;99.90
25328;DHT22;13279;51.300;12.394;2022-08-30T08:43:23;22.40;1.00
25328;DHT22;13279;51.300;12.394;2022-08-30T08:45:55;22.50;1.00
25328;DHT22;13279;51.300;12.394;2022-08-30T08:48:31;22.50;1.00
25328;DHT22;13279;51.300;12.394;2022-08-30T08:50:59;22.60;1.00
25328;DHT22;13279;51.300;12.394;2022-08-30T08:53:51;22.80;1.00
25328;DHT22;13279;51.300;12.394;2022-08-30T08:56:21;22.70;99.90
25328;DHT22;13279;51.300;12.394;2022-08-30T08:58:51;22.80;99.90
25328;DHT22;13279;51.300;12.394;2022-08-30T09:01:21;23.10;1.00
25328;DHT22;13279;51.300;12.394;2022-08-30T09:03:50;23.30;4.80
25328;DHT22;13279;51.300;12.394;2022-08-30T09:06:27;23.30;1.00
25328;DHT22;13279;51.300;12.394;2022-08-30T09:08:58;23.50;31.60
25328;DHT22;13279;51.300;12.394;2022-08-30T09:11:27;23.30;1.00
25328;DHT22;13279;51.300;12.394;2022-08-30T09:13:58;23.30;1.00
25328;DHT22;13279;51.300;12.394;2022-08-30T09:16:45;23.30;99.90
25328;DHT22;13279;51.300;12.394;2022-08-30T09:19:30;23.70;99.90
25328;DHT22;13279;51.300;12.394;2022-08-30T09:22:00;23.50;1.00
25328;DHT22;13279;51.300;12.394;2022-08-30T09:24:37;23.30;99.90
25328;DHT22;13279;51.300;12.394;2022-08-30T09:27:18;23.60;99.90
25328;DHT22;13279;51.300;12.394;2022-08-30T09:29:51;23.60;90.10
25328;DHT22;13279;51.300;12.394;2022-08-30T09:32:25;23.50;99.90
25328;DHT22;13279;51.300;12.394;2022-08-30T09:34:54;23.60;99.90
25328;DHT22;13279;51.300;12.394;2022-08-30T09:37:25;23.70;1.00
25328;DHT22;13279;51.300;12.394;2022-08-30T09:39:53;23.70;74.50
25328;DHT22;13279;51.300;12.394;2022-08-30T09:42:22;23.90;37.00
25328;DHT22;13279;51.300;12.394;2022-08-30T09:44:51;24.00;1.00
25328;DHT22;13279;51.300;12.394;2022-08-30T09:47:37;24.00;1.00
25328;DHT22;13279;51.300;12.394;2022-08-30T09:50:09;24.10;1.00
25328;DHT22;13279;51.300;12.394;2022-08-30T09:52:56;24.50;99.90
25328;DHT22;13279;51.300;12.394;2022-08-30T09:55:46;24.50;1.00
25328;DHT22;13279;51.300;12.394;2022-08-30T09:58:24;24.50;1.00
25328;DHT22;13279;51.300;12.394;2022-08-30T10:01:03;24.50;1.00
25328;DHT22;13279;51.300;12.394;2022-08-30T10:03:40;24.50;99.90
25328;DHT22;13279;51.300;12.394;2022-08-30T10:06:17;24.80;99.90
25328;DHT22;13279;51.300;12.394;2022-08-30T10:08:57;24.80;99.90
25328;DHT22;13279;51.300;12.394;2022-08-30T10:11:32;24.90;99.90
25328;DHT22;13279;51.300;12.394;2022-08-30T10:14:27;25.20;99.90
25328;DHT22;13279;51.300;12.394;2022-08-30T10:17:04;25.00;1.00
25328;DHT22;13279;51.300;12.394;2022-08-30T10:19:44;24.90;1.00
25328;DHT22;13279;51.300;12.394;2022-08-30T10:22:22;25.40;1.00
25328;DHT22;13279;51.300;12.394;2022-08-30T10:24:54;25.90;1.00
25328;DHT22;13279;51.300;12.394;2022-08-30T10:27:29;25.90;1.00
25328;DHT22;13279;51.300;12.394;2022-08-30T10:30:04;25.90;1.00
25328;DHT22;13279;51.300;12.394;2022-08-30T10:32:34;25.60;1.00
25328;DHT22;13279;51.300;12.394;2022-08-30T10:35:06;25.40;1.00
25328;DHT22;13279;51.300;12.394;2022-08-30T10:37:40;25.20;1.00
25328;DHT22;13279;51.300;12.394;2022-08-30T10:40:12;24.70;99.90
25328;DHT22;13279;51.300;12.394;2022-08-30T10:43:01;24.40;1.00
25328;DHT22;13279;51.300;12.394;2022-08-30T10:45:35;24.00;99.90
25328;DHT22;13279;51.300;12.394;2022-08-30T10:48:10;23.90;1.00
25328;DHT22;13279;51.300;12.394;2022-08-30T10:50:43;23.80;1.00
25328;DHT22;13279;51.300;12.394;2022-08-30T10:53:15;23.40;99.90
25328;DHT22;13279;51.300;12.394;2022-08-30T10:55:49;23.20;1.00
25328;DHT22;13279;51.300;12.394;2022-08-30T10:58:18;23.10;1.00
25328;DHT22;13279;51.300;12.394;2022-08-30T11:00:56;23.20;99.90
25328;DHT22;13279;51.300;12.394;2022-08-30T11:06:41;23.00;1.00
25328;DHT22;13279;51.300;12.394;2022-08-30T11:12:24;22.80;1.00
25328;DHT22;13279;51.300;12.394;2022-08-30T11:14:54;22.80;1.00
25328;DHT22;13279;51.300;12.394;2022-08-30T11:17:25;22.70;1.00
25328;DHT22;13279;51.300;12.394;2022-08-30T11:19:56;22.60;1.00
25328;DHT22;13279;51.300;12.394;2022-08-30T11:22:27;22.50;1.00
25328;DHT22;13279;51.300;12.394;2022-08-30T11:25:08;22.70;98.80
25328;DHT22;13279;51.300;12.394;2022-08-30T11:27:44;22.80;1.00
25328;DHT22;13279;51.300;12.394;2022-08-30T11:33:43;22.80;99.90
25328;DHT22;13279;51.300;12.394;2022-08-30T11:39:05;22.80;5.50
25328;DHT22;13279;51.300;12.394;2022-08-30T11:41:37;22.70;1.00
25328;DHT22;13279;51.300;12.394;2022-08-30T11:44:28;22.70;99.90
25328;DHT22;13279;51.300;12.394;2022-08-30T11:46:58;22.80;1.00
25328;DHT22;13279;51.300;12.394;2022-08-30T11:49:47;22.90;1.00
25328;DHT22;13279;51.300;12.394;2022-08-30T11:52:36;23.10;1.00
25328;DHT22;13279;51.300;12.394;2022-08-30T11:58:22;23.20;99.90
25328;DHT22;13279;51.300;12.394;2022-08-30T12:03:56;22.90;99.90
25328;DHT22;13279;51.300;12.394;2022-08-30T12:06:49;22.90;99.90
25328;DHT22;13279;51.300;12.394;2022-08-30T12:12:46;23.20;1.00
25328;DHT22;13279;51.300;12.394;2022-08-30T12:15:53;23.20;99.90
25328;DHT22;13279;51.300;12.394;2022-08-30T12:18:26;23.20;1.00
25328;DHT22;13279;51.300;12.394;2022-08-30T12:20:54;23.20;1.00
25328;DHT22;13279;51.300;12.394;2022-08-30T12:23:32;23.10;1.00
25328;DHT22;13279;51.300;12.394;2022-08-30T12:26:14;23.10;99.90
25328;DHT22;13279;51.300;12.394;2022-08-30T12:28:42;23.00;1.00
25328;DHT22;13279;51.300;12.394;2022-08-30T12:31:15;23.10;1.00
25328;DHT22;13279;51.300;12.394;2022-08-30T12:33:46;23.20;1.00
25328;DHT22;13279;51.300;12.394;2022-08-30T12:39:06;23.30;1.00
25328;DHT22;13279;51.300;12.394;2022-08-30T12:41:34;23.30;1.00
25328;DHT22;13279;51.300;12.394;2022-08-30T12:44:02;23.20;1.00
25328;DHT22;13279;51.300;12.394;2022-08-30T12:46:32;23.00;1.00
25328;DHT22;13279;51.300;12.394;2022-08-30T12:49:00;23.10;1.00
25328;DHT22;13279;51.300;12.394;2022-08-30T12:51:34;23.20;99.90
25328;DHT22;13279;51.300;12.394;2022-08-30T12:54:12;23.50;99.90
25328;DHT22;13279;51.300;12.394;2022-08-30T12:56:49;24.00;1.00
25328;DHT22;13279;51.300;12.394;2022-08-30T12:59:49;24.40;1.00
25328;DHT22;13279;51.300;12.394;2022-08-30T13:02:21;24.30;97.60
25328;DHT22;13279;51.300;12.394;2022-08-30T13:04:50;24.50;99.90
25328;DHT22;13279;51.300;12.394;2022-08-30T13:07:30;25.10;99.90
25328;DHT22;13279;51.300;12.394;2022-08-30T13:10:12;25.30;1.00
25328;DHT22;13279;51.300;12.394;2022-08-30T13:12:58;25.10;99.90
25328;DHT22;13279;51.300;12.394;2022-08-30T13:15:31;24.80;32.90
25328;DHT22;13279;51.300;12.394;2022-08-30T13:18:17;24.60;99.90
25328;DHT22;13279;51.300;12.394;2022-08-30T13:20:46;24.40;99.90
25328;DHT22;13279;51.300;12.394;2022-08-30T13:23:21;24.20;1.00
25328;DHT22;13279;51.300;12.394;2022-08-30T13:25:49;24.10;1.00
25328;DHT22;13279;51.300;12.394;2022-08-30T13:28:17;24.20;1.00
25328;DHT22;13279;51.300;12.394;2022-08-30T13:30:46;24.30;76.00
25328;DHT22;13279;51.300;12.394;2022-08-30T13:33:15;24.20;1.00
25328;DHT22;13279;51.300;12.394;2022-08-30T13:35:44;24.00;1.00
25328;DHT22;13279;51.300;12.394;2022-08-30T13:38:11;24.00;1.00
25328;DHT22;13279;51.300;12.394;2022-08-30T13:40:38;23.90;1.00
25328;DHT22;13279;51.300;12.394;2022-08-30T13:43:06;23.70;1.00
25328;DHT22;13279;51.300;12.394;2022-08-30T13:45:33;23.70;1.00
25328;DHT22;13279;51.300;12.394;2022-08-30T13:48:01;24.00;1.00
25328;DHT22;13279;51.300;12.394;2022-08-30T13:50:30;24.20;1.00
25328;DHT22;13279;51.300;12.394;2022-08-30T13:52:58;24.30;99.90
25328;DHT22;13279;51.300;12.394;2022-08-30T13:55:25;24.50;1.00
25328;DHT22;13279;51.300;12.394;2022-08-30T13:57:53;24.50;1.00
25328;DHT22;13279;51.300;12.394;2022-08-30T14:00:21;24.20;1.00
25328;DHT22;13279;51.300;12.394;2022-08-30T14:02:50;24.10;99.90
25328;DHT22;13279;51.300;12.394;2022-08-30T14:05:21;24.00;99.90
25328;DHT22;13279;51.300;12.394;2022-08-30T14:07:50;24.00;99.90
25328;DHT22;13279;51.300;12.394;2022-08-30T14:10:18;23.60;1.00
25328;DHT22;13279;51.300;12.394;2022-08-30T14:12:47;23.50;99.90
25328;DHT22;13279;51.300;12.394;2022-08-30T14:15:14;23.40;99.90
25328;DHT22;13279;51.300;12.394;2022-08-30T14:17:42;23.90;1.00
25328;DHT22;13279;51.300;12.394;2022-08-30T14:20:10;24.70;1.00
25328;DHT22;13279;51.300;12.394;2022-08-30T14:22:38;25.00;99.90
25328;DHT22;13279;51.300;12.394;2022-08-30T14:25:08;24.50;1.00
25328;DHT22;13279;51.300;12.394;2022-08-30T14:27:35;23.90;99.90
25328;DHT22;13279;51.300;12.394;2022-08-30T14:30:04;23.70;99.90
25328;DHT22;13279;51.300;12.394;2022-08-30T14:32:32;23.70;65.10
25328;DHT22;13279;51.300;12.394;2022-08-30T14:34:59;23.40;1.00
25328;DHT22;13279;51.300;12.394;2022-08-30T14:37:27;23.60;99.90
25328;DHT22;13279;51.300;12.394;2022-08-30T14:39:54;24.20;1.00
25328;DHT22;13279;51.300;12.394;2022-08-30T14:42:23;24.80;1.00
25328;DHT22;13279;51.300;12.394;2022-08-30T14:44:51;24.90;99.90
25328;DHT22;13279;51.300;12.394;2022-08-30T14:47:18;25.00;99.90
25328;DHT22;13279;51.300;12.394;2022-08-30T14:49:45;24.90;99.90
25328;DHT22;13279;51.300;12.394;2022-08-30T14:52:13;24.70;1.00
25328;DHT22;13279;51.300;12.394;2022-08-30T14:54:41;24.40;1.00
25328;DHT22;13279;51.300;12.394;2022-08-30T14:57:08;24.10;1.00
25328;DHT22;13279;51.300;12.394;2022-08-30T14:59:37;23.80;1.00
25328;DHT22;13279;51.300;12.394;2022-08-30T15:02:04;23.70;1.00
25328;DHT22;13279;51.300;12.394;2022-08-30T15:04:32;23.70;99.90
25328;DHT22;13279;51.300;12.394;2022-08-30T15:06:59;23.60;99.90
25328;DHT22;13279;51.300;12.394;2022-08-30T15:09:27;23.50;99.90
25328;DHT22;13279;51.300;12.394;2022-08-30T15:11:57;23.40;1.00
25328;DHT22;13279;51.300;12.394;2022-08-30T15:14:27;23.40;1.00
25328;DHT22;13279;51.300;12.394;2022-08-30T15:16:56;23.50;1.00
25328;DHT22;13279;51.300;12.394;2022-08-30T15:19:24;23.40;1.00
25328;DHT22;13279;51.300;12.394;2022-08-30T15:21:52;23.30;99.90
25328;DHT22;13279;51.300;12.394;2022-08-30T15:24:22;23.40;1.00
25328;DHT22;13279;51.300;12.394;2022-08-30T15:26:50;23.50;1.00
25328;DHT22;13279;51.300;12.394;2022-08-30T15:29:18;23.70;1.00
25328;DHT22;13279;51.300;12.394;2022-08-30T15:31:47;23.70;1.00
25328;DHT22;13279;51.300;12.394;2022-08-30T15:34:18;23.60;1.00
25328;DHT22;13279;51.300;12.394;2022-08-30T15:36:47;23.50;99.90
25328;DHT22;13279;51.300;12.394;2022-08-30T15:39:15;23.40;99.90
25328;DHT22;13279;51.300;12.394;2022-08-30T15:41:44;23.30;99.90
25328;DHT22;13279;51.300;12.394;2022-08-30T15:44:11;23.10;99.90
25328;DHT22;13279;51.300;12.394;2022-08-30T15:46:40;22.90;99.90
25328;DHT22;13279;51.300;12.394;2022-08-30T15:49:12;22.80;14.50
25328;DHT22;13279;51.300;12.394;2022-08-30T15:51:41;22.80;1.00
25328;DHT22;13279;51.300;12.394;2022-08-30T15:54:11;22.70;1.00
25328;DHT22;13279;51.300;12.394;2022-08-30T15:56:56;22.70;1.00
25328;DHT22;13279;51.300;12.394;2022-08-30T15:59:43;22.70;1.00
25328;DHT22;13279;51.300;12.394;2022-08-30T16:02:11;22.70;1.00
25328;DHT22;13279;51.300;12.394;2022-08-30T16:04:39;22.70;1.00